sensor_id;sensor_type;location;lat;lon;timestamp;temperature;humidity
19110;DHT22;9687;50.836;12.060;2024-01-27T00:01:50;8.50;81.30
19110;DHT22;9687;50.836;12.060;2024-01-27T00:04:21;8.50;81.10
19110;DHT22;9687;50.836;12.060;2024-01-27T00:06:52;8.50;81.10
19110;DHT22;9687;50.836;12.060;2024-01-27T00:09:21;8.40;80.90
19110;DHT22;9687;50.836;12.060;2024-01-27T00:11:49;8.40;80.50
19110;DHT22;9687;50.836;12.060;2024-01-27T00:14:18;8.40;80.50
19110;DHT22;9687;50.836;12.060;2024-01-27T00:16:47;8.40;80.40
19110;DHT22;9687;50.836;12.060;2024-01-27T00:19:31;8.30;80.30
19110;DHT22;9687;50.836;12.060;2024-01-27T00:22:19;8.30;80.40
19110;DHT22;9687;50.836;12.060;2024-01-27T00:25:02;8.30;80.00
19110;DHT22;9687;50.836;12.060;2024-01-27T00:27:32;8.30;79.70
19110;DHT22;9687;50.836;12.060;2024-01-27T00:30:01;8.30;79.70
19110;DHT22;9687;50.836;12.060;2024-01-27T00:32:53;8.20;79.30
19110;DHT22;9687;50.836;12.060;2024-01-27T00:35:24;8.20;79.30
19110;DHT22;9687;50.836;12.060;2024-01-27T00:37:52;8.20;79.40
19110;DHT22;9687;50.836;12.060;2024-01-27T00:40:20;8.20;79.50
19110;DHT22;9687;50.836;12.060;2024-01-27T00:42:58;8.20;79.50
19110;DHT22;9687;50.836;12.060;2024-01-27T00:45:26;8.20;79.50
19110;DHT22;9687;50.836;12.060;2024-01-27T00:48:13;8.20;79.50
19110;DHT22;9687;50.836;12.060;2024-01-27T00:51:06;8.20;79.60
19110;DHT22;9687;50.836;12.060;2024-01-27T00:53:42;8.10;79.50
19110;DHT22;9687;50.836;12.060;2024-01-27T00:56:43;8.20;79.50
19110;DHT22;9687;50.836;12.060;2024-01-27T00:59:31;8.10;79.50
19110;DHT22;9687;50.836;12.060;2024-01-27T01:01:59;8.10;79.60
19110;DHT22;9687;50.836;12.060;2024-01-27T01:04:37;8.10;79.70
19110;DHT22;9687;50.836;12.060;2024-01-27T01:07:25;8.00;79.60
19110;DHT22;9687;50.836;12.060;2024-01-27T01:09:53;8.10;79.80
19110;DHT22;9687;50.836;12.060;2024-01-27T01:12:27;8.00;79.70
19110;DHT22;9687;50.836;12.060;2024-01-27T01:14:57;8.00;79.80
19110;DHT22;9687;50.836;12.060;2024-01-27T01:17:49;8.10;80.00
19110;DHT22;9687;50.836;12.060;2024-01-27T01:20:20;8.10;80.10
19110;DHT22;9687;50.836;12.060;2024-01-27T01:23:07;8.10;80.10
19110;DHT22;9687;50.836;12.060;2024-01-27T01:25:41;8.10;80.10
19110;DHT22;9687;50.836;12.060;2024-01-27T01:28:10;8.10;80.80
19110;DHT22;9687;50.836;12.060;2024-01-27T01:30:53;8.10;79.90
19110;DHT22;9687;50.836;12.060;2024-01-27T01:33:24;8.00;79.80
19110;DHT22;9687;50.836;12.060;2024-01-27T01:35:51;8.00;79.70
19110;DHT22;9687;50.836;12.060;2024-01-27T01:38:21;8.00;80.00
19110;DHT22;9687;50.836;12.060;2024-01-27T01:40:49;8.00;79.80
19110;DHT22;9687;50.836;12.060;2024-01-27T01:43:19;8.00;79.80
19110;DHT22;9687;50.836;12.060;2024-01-27T01:45:48;8.00;79.90
19110;DHT22;9687;50.836;12.060;2024-01-27T01:48:16;8.00;79.80
19110;DHT22;9687;50.836;12.060;2024-01-27T01:50:45;8.00;79.70
19110;DHT22;9687;50.836;12.060;2024-01-27T01:53:26;8.00;79.70
19110;DHT22;9687;50.836;12.060;2024-01-27T01:56:12;7.90;79.60
19110;DHT22;9687;50.836;12.060;2024-01-27T01:58:41;8.00;79.70
19110;DHT22;9687;50.836;12.060;2024-01-27T02:01:09;7.90;79.60
19110;DHT22;9687;50.836;12.060;2024-01-27T02:03:37;7.90;79.50
19110;DHT22;9687;50.836;12.060;2024-01-27T02:06:23;7.90;79.50
19110;DHT22;9687;50.836;12.060;2024-01-27T02:08:56;7.90;79.50
19110;DHT22;9687;50.836;12.060;2024-01-27T02:11:42;7.90;79.40
19110;DHT22;9687;50.836;12.060;2024-01-27T02:14:26;7.90;79.40
19110;DHT22;9687;50.836;12.060;2024-01-27T02:17:00;7.90;79.40
19110;DHT22;9687;50.836;12.060;2024-01-27T02:19:45;7.90;79.30
19110;DHT22;9687;50.836;12.060;2024-01-27T02:22:12;7.90;79.30
19110;DHT22;9687;50.836;12.060;2024-01-27T02:24:42;7.90;79.20
19110;DHT22;9687;50.836;12.060;2024-01-27T02:27:10;8.00;79.20
19110;DHT22;9687;50.836;12.060;2024-01-27T02:29:38;7.80;78.90
19110;DHT22;9687;50.836;12.060;2024-01-27T02:32:07;7.80;78.90
19110;DHT22;9687;50.836;12.060;2024-01-27T02:34:36;7.80;78.90
19110;DHT22;9687;50.836;12.060;2024-01-27T02:37:04;7.80;78.70
19110;DHT22;9687;50.836;12.060;2024-01-27T02:39:54;7.80;78.70
19110;DHT22;9687;50.836;12.060;2024-01-27T02:42:22;7.80;78.70
19110;DHT22;9687;50.836;12.060;2024-01-27T02:44:51;7.80;78.60
19110;DHT22;9687;50.836;12.060;2024-01-27T02:47:33;7.70;78.40
19110;DHT22;9687;50.836;12.060;2024-01-27T02:50:19;7.70;78.30
19110;DHT22;9687;50.836;12.060;2024-01-27T02:52:50;7.70;78.20
19110;DHT22;9687;50.836;12.060;2024-01-27T02:55:45;7.70;78.10
19110;DHT22;9687;50.836;12.060;2024-01-27T02:58:28;7.70;78.10
19110;DHT22;9687;50.836;12.060;2024-01-27T03:01:09;7.60;78.00
19110;DHT22;9687;50.836;12.060;2024-01-27T03:03:54;7.60;77.80
19110;DHT22;9687;50.836;12.060;2024-01-27T03:06:40;7.50;77.70
19110;DHT22;9687;50.836;12.060;2024-01-27T03:09:25;7.50;77.70
19110;DHT22;9687;50.836;12.060;2024-01-27T03:11:54;7.50;77.80
19110;DHT22;9687;50.836;12.060;2024-01-27T03:14:22;7.50;77.70
19110;DHT22;9687;50.836;12.060;2024-01-27T03:16:51;7.50;77.70
19110;DHT22;9687;50.836;12.060;2024-01-27T03:19:19;7.50;77.70
19110;DHT22;9687;50.836;12.060;2024-01-27T03:21:46;7.50;77.60
19110;DHT22;9687;50.836;12.060;2024-01-27T03:24:14;7.50;77.50
19110;DHT22;9687;50.836;12.060;2024-01-27T03:26:44;7.60;77.70
19110;DHT22;9687;50.836;12.060;2024-01-27T03:29:14;7.50;77.50
19110;DHT22;9687;50.836;12.060;2024-01-27T03:31:43;7.50;77.40
19110;DHT22;9687;50.836;12.060;2024-01-27T03:34:15;7.50;77.30
19110;DHT22;9687;50.836;12.060;2024-01-27T03:36:47;7.50;77.30
19110;DHT22;9687;50.836;12.060;2024-01-27T03:39:15;7.50;77.20
19110;DHT22;9687;50.836;12.060;2024-01-27T03:41:45;7.50;77.20
19110;DHT22;9687;50.836;12.060;2024-01-27T03:44:12;7.40;77.00
19110;DHT22;9687;50.836;12.060;2024-01-27T03:46:43;7.40;77.00
19110;DHT22;9687;50.836;12.060;2024-01-27T03:49:10;7.40;76.90
19110;DHT22;9687;50.836;12.060;2024-01-27T03:51:45;7.40;77.00
19110;DHT22;9687;50.836;12.060;2024-01-27T03:54:20;7.40;76.90
19110;DHT22;9687;50.836;12.060;2024-01-27T03:57:01;7.40;76.90
19110;DHT22;9687;50.836;12.060;2024-01-27T03:59:29;7.40;76.90
19110;DHT22;9687;50.836;12.060;2024-01-27T04:01:59;7.40;76.90
19110;DHT22;9687;50.836;12.060;2024-01-27T04:04:27;7.40;77.70
19110;DHT22;9687;50.836;12.060;2024-01-27T04:06:55;7.40;76.90
19110;DHT22;9687;50.836;12.060;2024-01-27T04:09:23;7.40;76.90
19110;DHT22;9687;50.836;12.060;2024-01-27T04:11:52;7.40;76.90
19110;DHT22;9687;50.836;12.060;2024-01-27T04:14:21;7.40;76.80
19110;DHT22;9687;50.836;12.060;2024-01-27T04:16:49;7.30;76.60
19110;DHT22;9687;50.836;12.060;2024-01-27T04:19:18;7.30;76.60
19110;DHT22;9687;50.836;12.060;2024-01-27T04:21:47;7.30;76.60
19110;DHT22;9687;50.836;12.060;2024-01-27T04:24:21;7.30;76.60
19110;DHT22;9687;50.836;12.060;2024-01-27T04:26:49;7.30;76.60
19110;DHT22;9687;50.836;12.060;2024-01-27T04:29:19;7.30;76.70
19110;DHT22;9687;50.836;12.060;2024-01-27T04:31:47;7.30;76.60
19110;DHT22;9687;50.836;12.060;2024-01-27T04:34:20;7.30;76.60
19110;DHT22;9687;50.836;12.060;2024-01-27T04:36:49;7.30;76.60
19110;DHT22;9687;50.836;12.060;2024-01-27T04:39:19;7.20;76.50
19110;DHT22;9687;50.836;12.060;2024-01-27T04:41:49;7.20;76.50
19110;DHT22;9687;50.836;12.060;2024-01-27T04:44:18;7.20;76.50
19110;DHT22;9687;50.836;12.060;2024-01-27T04:46:46;7.20;76.50
19110;DHT22;9687;50.836;12.060;2024-01-27T04:49:14;7.20;76.50
19110;DHT22;9687;50.836;12.060;2024-01-27T04:51:58;7.20;76.50
19110;DHT22;9687;50.836;12.060;2024-01-27T04:54:26;7.20;76.50
19110;DHT22;9687;50.836;12.060;2024-01-27T04:56:54;7.20;76.40
19110;DHT22;9687;50.836;12.060;2024-01-27T04:59:25;7.20;76.40
19110;DHT22;9687;50.836;12.060;2024-01-27T05:01:54;7.20;76.40
19110;DHT22;9687;50.836;12.060;2024-01-27T05:04:21;7.20;76.40
19110;DHT22;9687;50.836;12.060;2024-01-27T05:06:54;7.20;76.40
19110;DHT22;9687;50.836;12.060;2024-01-27T05:09:23;7.10;76.40
19110;DHT22;9687;50.836;12.060;2024-01-27T05:11:52;7.00;76.20
19110;DHT22;9687;50.836;12.060;2024-01-27T05:14:20;7.10;76.40
19110;DHT22;9687;50.836;12.060;2024-01-27T05:16:48;7.10;76.40
19110;DHT22;9687;50.836;12.060;2024-01-27T05:19:16;7.10;76.40
19110;DHT22;9687;50.836;12.060;2024-01-27T05:21:47;7.10;76.40
19110;DHT22;9687;50.836;12.060;2024-01-27T05:24:14;7.10;76.40
19110;DHT22;9687;50.836;12.060;2024-01-27T05:26:43;7.10;76.40
19110;DHT22;9687;50.836;12.060;2024-01-27T05:29:10;7.10;76.40
19110;DHT22;9687;50.836;12.060;2024-01-27T05:31:39;7.10;76.40
19110;DHT22;9687;50.836;12.060;2024-01-27T05:34:12;7.10;76.40
19110;DHT22;9687;50.836;12.060;2024-01-27T05:36:59;7.10;76.40
19110;DHT22;9687;50.836;12.060;2024-01-27T05:39:29;7.00;76.30
19110;DHT22;9687;50.836;12.060;2024-01-27T05:41:59;7.10;76.40
19110;DHT22;9687;50.836;12.060;2024-01-27T05:44:28;7.00;76.40
19110;DHT22;9687;50.836;12.060;2024-01-27T05:46:55;7.10;76.40
19110;DHT22;9687;50.836;12.060;2024-01-27T05:49:24;7.00;76.30
19110;DHT22;9687;50.836;12.060;2024-01-27T05:51:52;7.00;76.30
19110;DHT22;9687;50.836;12.060;2024-01-27T05:54:21;7.00;76.40
19110;DHT22;9687;50.836;12.060;2024-01-27T05:56:49;7.00;76.30
19110;DHT22;9687;50.836;12.060;2024-01-27T05:59:20;7.00;76.40
19110;DHT22;9687;50.836;12.060;2024-01-27T06:01:48;7.00;76.40
19110;DHT22;9687;50.836;12.060;2024-01-27T06:04:17;7.00;76.40
19110;DHT22;9687;50.836;12.060;2024-01-27T06:06:44;6.90;76.40
19110;DHT22;9687;50.836;12.060;2024-01-27T06:09:13;6.90;76.40
19110;DHT22;9687;50.836;12.060;2024-01-27T06:11:40;6.90;76.40
19110;DHT22;9687;50.836;12.060;2024-01-27T06:14:09;6.90;76.40
19110;DHT22;9687;50.836;12.060;2024-01-27T06:17:05;6.90;76.40
19110;DHT22;9687;50.836;12.060;2024-01-27T06:19:32;6.90;76.40
19110;DHT22;9687;50.836;12.060;2024-01-27T06:22:14;6.90;76.40
19110;DHT22;9687;50.836;12.060;2024-01-27T06:24:45;7.00;76.60
19110;DHT22;9687;50.836;12.060;2024-01-27T06:27:13;6.90;76.50
19110;DHT22;9687;50.836;12.060;2024-01-27T06:29:52;6.90;76.50
19110;DHT22;9687;50.836;12.060;2024-01-27T06:32:41;6.90;76.60
19110;DHT22;9687;50.836;12.060;2024-01-27T06:35:08;6.80;76.40
19110;DHT22;9687;50.836;12.060;2024-01-27T06:37:37;6.80;76.50
19110;DHT22;9687;50.836;12.060;2024-01-27T06:40:07;6.80;76.40
19110;DHT22;9687;50.836;12.060;2024-01-27T06:42:35;6.80;76.50
19110;DHT22;9687;50.836;12.060;2024-01-27T06:45:02;6.80;76.50
19110;DHT22;9687;50.836;12.060;2024-01-27T06:47:30;6.80;76.50
19110;DHT22;9687;50.836;12.060;2024-01-27T06:50:01;6.80;76.50
19110;DHT22;9687;50.836;12.060;2024-01-27T06:52:35;6.70;76.50
19110;DHT22;9687;50.836;12.060;2024-01-27T06:55:03;6.70;76.50
19110;DHT22;9687;50.836;12.060;2024-01-27T06:57:51;6.70;76.60
19110;DHT22;9687;50.836;12.060;2024-01-27T07:00:39;6.70;76.50
19110;DHT22;9687;50.836;12.060;2024-01-27T07:03:08;6.70;76.60
19110;DHT22;9687;50.836;12.060;2024-01-27T07:05:37;6.70;76.60
19110;DHT22;9687;50.836;12.060;2024-01-27T07:08:07;6.70;76.70
19110;DHT22;9687;50.836;12.060;2024-01-27T07:10:38;6.70;76.70
19110;DHT22;9687;50.836;12.060;2024-01-27T07:13:06;6.70;76.80
19110;DHT22;9687;50.836;12.060;2024-01-27T07:15:35;6.70;76.80
19110;DHT22;9687;50.836;12.060;2024-01-27T07:18:05;6.70;76.90
19110;DHT22;9687;50.836;12.060;2024-01-27T07:20:34;6.70;76.90
19110;DHT22;9687;50.836;12.060;2024-01-27T07:23:14;6.70;77.00
19110;DHT22;9687;50.836;12.060;2024-01-27T07:25:52;6.70;77.10
19110;DHT22;9687;50.836;12.060;2024-01-27T07:28:39;6.70;77.20
19110;DHT22;9687;50.836;12.060;2024-01-27T07:31:19;6.80;77.30
19110;DHT22;9687;50.836;12.060;2024-01-27T07:34:04;6.90;77.40
19110;DHT22;9687;50.836;12.060;2024-01-27T07:36:50;7.00;77.50
19110;DHT22;9687;50.836;12.060;2024-01-27T07:39:20;7.00;77.40
19110;DHT22;9687;50.836;12.060;2024-01-27T07:41:48;7.10;77.50
19110;DHT22;9687;50.836;12.060;2024-01-27T07:44:17;7.20;77.50
19110;DHT22;9687;50.836;12.060;2024-01-27T07:47:04;7.30;77.60
19110;DHT22;9687;50.836;12.060;2024-01-27T07:49:49;7.30;77.50
19110;DHT22;9687;50.836;12.060;2024-01-27T07:52:17;7.40;77.40
19110;DHT22;9687;50.836;12.060;2024-01-27T07:54:47;7.50;77.30
19110;DHT22;9687;50.836;12.060;2024-01-27T07:57:24;7.60;77.30
19110;DHT22;9687;50.836;12.060;2024-01-27T07:59:52;7.70;77.20
19110;DHT22;9687;50.836;12.060;2024-01-27T08:02:38;7.80;77.10
19110;DHT22;9687;50.836;12.060;2024-01-27T08:05:06;7.90;77.10
19110;DHT22;9687;50.836;12.060;2024-01-27T08:07:34;8.00;77.10
19110;DHT22;9687;50.836;12.060;2024-01-27T08:10:07;8.10;76.80
19110;DHT22;9687;50.836;12.060;2024-01-27T08:12:37;8.10;76.50
19110;DHT22;9687;50.836;12.060;2024-01-27T08:15:05;8.20;76.50
19110;DHT22;9687;50.836;12.060;2024-01-27T08:17:33;8.30;76.40
19110;DHT22;9687;50.836;12.060;2024-01-27T08:20:01;8.40;76.40
19110;DHT22;9687;50.836;12.060;2024-01-27T08:22:29;8.50;76.40
19110;DHT22;9687;50.836;12.060;2024-01-27T08:25:08;8.50;76.20
19110;DHT22;9687;50.836;12.060;2024-01-27T08:27:38;8.70;76.30
19110;DHT22;9687;50.836;12.060;2024-01-27T08:30:06;8.80;76.20
19110;DHT22;9687;50.836;12.060;2024-01-27T08:32:33;8.90;76.20
19110;DHT22;9687;50.836;12.060;2024-01-27T08:35:02;9.00;76.00
19110;DHT22;9687;50.836;12.060;2024-01-27T08:37:45;9.10;75.90
19110;DHT22;9687;50.836;12.060;2024-01-27T08:40:25;9.30;75.80
19110;DHT22;9687;50.836;12.060;2024-01-27T08:42:53;9.40;75.90
19110;DHT22;9687;50.836;12.060;2024-01-27T08:45:23;9.50;75.90
19110;DHT22;9687;50.836;12.060;2024-01-27T08:47:50;9.60;75.80
19110;DHT22;9687;50.836;12.060;2024-01-27T08:50:19;9.70;75.60
19110;DHT22;9687;50.836;12.060;2024-01-27T08:52:47;9.90;75.60
19110;DHT22;9687;50.836;12.060;2024-01-27T08:55:29;10.00;74.40
19110;DHT22;9687;50.836;12.060;2024-01-27T08:57:57;10.00;73.90
19110;DHT22;9687;50.836;12.060;2024-01-27T09:00:25;10.10;73.80
19110;DHT22;9687;50.836;12.060;2024-01-27T09:02:54;10.20;73.60
19110;DHT22;9687;50.836;12.060;2024-01-27T09:05:23;10.30;73.30
19110;DHT22;9687;50.836;12.060;2024-01-27T09:07:54;10.40;73.20
19110;DHT22;9687;50.836;12.060;2024-01-27T09:10:24;10.50;73.00
19110;DHT22;9687;50.836;12.060;2024-01-27T09:16:11;10.70;72.70
19110;DHT22;9687;50.836;12.060;2024-01-27T09:18:40;10.80;72.50
19110;DHT22;9687;50.836;12.060;2024-01-27T09:21:07;10.90;72.30
19110;DHT22;9687;50.836;12.060;2024-01-27T09:23:35;11.00;72.40
19110;DHT22;9687;50.836;12.060;2024-01-27T09:26:07;11.10;72.10
19110;DHT22;9687;50.836;12.060;2024-01-27T09:28:35;11.20;71.70
19110;DHT22;9687;50.836;12.060;2024-01-27T09:31:06;11.30;71.70
19110;DHT22;9687;50.836;12.060;2024-01-27T09:33:35;11.30;71.40
19110;DHT22;9687;50.836;12.060;2024-01-27T09:36:05;11.40;71.30
19110;DHT22;9687;50.836;12.060;2024-01-27T09:38:43;11.50;71.30
19110;DHT22;9687;50.836;12.060;2024-01-27T09:41:23;11.50;71.20
19110;DHT22;9687;50.836;12.060;2024-01-27T09:44:05;11.60;70.90
19110;DHT22;9687;50.836;12.060;2024-01-27T09:46:41;11.70;70.60
19110;DHT22;9687;50.836;12.060;2024-01-27T09:49:13;11.80;70.40
19110;DHT22;9687;50.836;12.060;2024-01-27T09:51:41;11.80;70.10
19110;DHT22;9687;50.836;12.060;2024-01-27T09:54:09;11.90;70.00
19110;DHT22;9687;50.836;12.060;2024-01-27T09:56:37;11.90;69.80
19110;DHT22;9687;50.836;12.060;2024-01-27T09:59:16;12.00;69.90
19110;DHT22;9687;50.836;12.060;2024-01-27T10:02:00;12.10;69.80
19110;DHT22;9687;50.836;12.060;2024-01-27T10:04:47;12.20;69.90
19110;DHT22;9687;50.836;12.060;2024-01-27T10:07:17;12.30;69.60
19110;DHT22;9687;50.836;12.060;2024-01-27T10:09:55;12.30;69.20
19110;DHT22;9687;50.836;12.060;2024-01-27T10:12:39;12.40;69.10
19110;DHT22;9687;50.836;12.060;2024-01-27T10:15:18;12.40;68.90
19110;DHT22;9687;50.836;12.060;2024-01-27T10:18:04;12.50;68.80
19110;DHT22;9687;50.836;12.060;2024-01-27T10:20:33;12.60;68.90
19110;DHT22;9687;50.836;12.060;2024-01-27T10:23:11;12.70;68.60
19110;DHT22;9687;50.836;12.060;2024-01-27T10:25:42;12.80;68.50
19110;DHT22;9687;50.836;12.060;2024-01-27T10:28:10;12.80;68.50
19110;DHT22;9687;50.836;12.060;2024-01-27T10:30:40;12.90;68.30
19110;DHT22;9687;50.836;12.060;2024-01-27T10:33:09;13.00;68.10
19110;DHT22;9687;50.836;12.060;2024-01-27T10:35:42;13.10;68.10
19110;DHT22;9687;50.836;12.060;2024-01-27T10:38:12;13.20;68.10
19110;DHT22;9687;50.836;12.060;2024-01-27T10:40:41;13.30;67.80
19110;DHT22;9687;50.836;12.060;2024-01-27T10:43:15;13.30;67.70
19110;DHT22;9687;50.836;12.060;2024-01-27T10:46:23;13.40;67.70
19110;DHT22;9687;50.836;12.060;2024-01-27T10:49:40;13.50;67.50
19110;DHT22;9687;50.836;12.060;2024-01-27T10:52:24;13.60;67.30
19110;DHT22;9687;50.836;12.060;2024-01-27T10:54:56;13.70;66.90
19110;DHT22;9687;50.836;12.060;2024-01-27T10:57:28;13.70;66.60
19110;DHT22;9687;50.836;12.060;2024-01-27T10:59:56;13.80;66.30
19110;DHT22;9687;50.836;12.060;2024-01-27T11:02:37;13.80;66.20
19110;DHT22;9687;50.836;12.060;2024-01-27T11:05:08;13.90;66.00
19110;DHT22;9687;50.836;12.060;2024-01-27T11:07:41;13.90;65.90
19110;DHT22;9687;50.836;12.060;2024-01-27T11:10:21;14.00;66.00
19110;DHT22;9687;50.836;12.060;2024-01-27T11:12:49;14.00;65.50
19110;DHT22;9687;50.836;12.060;2024-01-27T11:15:18;14.10;65.50
19110;DHT22;9687;50.836;12.060;2024-01-27T11:17:46;14.10;65.30
19110;DHT22;9687;50.836;12.060;2024-01-27T11:20:22;14.20;65.20
19110;DHT22;9687;50.836;12.060;2024-01-27T11:22:55;14.20;64.80
19110;DHT22;9687;50.836;12.060;2024-01-27T11:25:27;14.30;64.90
19110;DHT22;9687;50.836;12.060;2024-01-27T11:27:58;14.30;64.40
19110;DHT22;9687;50.836;12.060;2024-01-27T11:30:38;14.40;64.30
19110;DHT22;9687;50.836;12.060;2024-01-27T11:33:12;14.60;64.30
19110;DHT22;9687;50.836;12.060;2024-01-27T11:35:41;14.50;64.00
19110;DHT22;9687;50.836;12.060;2024-01-27T11:38:21;14.60;63.90
19110;DHT22;9687;50.836;12.060;2024-01-27T11:41:03;14.60;63.60
19110;DHT22;9687;50.836;12.060;2024-01-27T11:43:46;14.70;63.30
19110;DHT22;9687;50.836;12.060;2024-01-27T11:46:34;14.70;63.30
19110;DHT22;9687;50.836;12.060;2024-01-27T11:49:01;14.80;63.40
19110;DHT22;9687;50.836;12.060;2024-01-27T11:51:29;14.80;63.40
19110;DHT22;9687;50.836;12.060;2024-01-27T11:53:59;14.90;62.90
19110;DHT22;9687;50.836;12.060;2024-01-27T11:56:42;14.90;62.70
19110;DHT22;9687;50.836;12.060;2024-01-27T11:59:10;15.00;62.70
19110;DHT22;9687;50.836;12.060;2024-01-27T12:01:39;15.00;62.50
19110;DHT22;9687;50.836;12.060;2024-01-27T12:04:26;15.00;61.80
19110;DHT22;9687;50.836;12.060;2024-01-27T12:06:56;15.00;61.90
19110;DHT22;9687;50.836;12.060;2024-01-27T12:09:25;15.10;62.00
19110;DHT22;9687;50.836;12.060;2024-01-27T12:11:53;15.10;61.70
19110;DHT22;9687;50.836;12.060;2024-01-27T12:14:21;15.10;61.40
19110;DHT22;9687;50.836;12.060;2024-01-27T12:16:51;15.10;61.50
19110;DHT22;9687;50.836;12.060;2024-01-27T12:19:23;15.10;61.10
19110;DHT22;9687;50.836;12.060;2024-01-27T12:22:22;15.10;61.00
19110;DHT22;9687;50.836;12.060;2024-01-27T12:24:53;15.20;61.20
19110;DHT22;9687;50.836;12.060;2024-01-27T12:27:24;15.20;61.30
19110;DHT22;9687;50.836;12.060;2024-01-27T12:30:13;15.30;61.30
19110;DHT22;9687;50.836;12.060;2024-01-27T12:32:41;15.30;61.00
19110;DHT22;9687;50.836;12.060;2024-01-27T12:35:12;15.40;60.90
19110;DHT22;9687;50.836;12.060;2024-01-27T12:37:40;15.40;60.60
19110;DHT22;9687;50.836;12.060;2024-01-27T12:40:18;15.50;60.20
19110;DHT22;9687;50.836;12.060;2024-01-27T12:42:46;15.50;59.90
19110;DHT22;9687;50.836;12.060;2024-01-27T12:45:14;15.50;59.50
19110;DHT22;9687;50.836;12.060;2024-01-27T12:47:43;15.50;59.30
19110;DHT22;9687;50.836;12.060;2024-01-27T12:50:12;15.50;59.00
19110;DHT22;9687;50.836;12.060;2024-01-27T12:52:55;15.40;58.80
19110;DHT22;9687;50.836;12.060;2024-01-27T12:55:25;15.40;58.80
19110;DHT22;9687;50.836;12.060;2024-01-27T12:57:53;15.30;58.70
19110;DHT22;9687;50.836;12.060;2024-01-27T13:00:21;15.30;58.60
19110;DHT22;9687;50.836;12.060;2024-01-27T13:02:48;15.30;58.50
19110;DHT22;9687;50.836;12.060;2024-01-27T13:05:17;15.20;58.40
19110;DHT22;9687;50.836;12.060;2024-01-27T13:07:49;15.10;58.40
19110;DHT22;9687;50.836;12.060;2024-01-27T13:10:27;15.10;58.40
19110;DHT22;9687;50.836;12.060;2024-01-27T13:13:10;15.00;58.20
19110;DHT22;9687;50.836;12.060;2024-01-27T13:15:53;14.90;58.20
19110;DHT22;9687;50.836;12.060;2024-01-27T13:18:21;14.80;58.10
19110;DHT22;9687;50.836;12.060;2024-01-27T13:20:50;14.80;58.10
19110;DHT22;9687;50.836;12.060;2024-01-27T13:23:17;14.70;58.00
19110;DHT22;9687;50.836;12.060;2024-01-27T13:25:53;14.60;57.90
19110;DHT22;9687;50.836;12.060;2024-01-27T13:28:23;14.50;57.80
19110;DHT22;9687;50.836;12.060;2024-01-27T13:30:54;14.40;57.80
19110;DHT22;9687;50.836;12.060;2024-01-27T13:33:36;14.30;57.70
19110;DHT22;9687;50.836;12.060;2024-01-27T13:36:21;14.20;57.60
19110;DHT22;9687;50.836;12.060;2024-01-27T13:38:49;14.10;57.50
19110;DHT22;9687;50.836;12.060;2024-01-27T13:41:20;14.00;57.80
19110;DHT22;9687;50.836;12.060;2024-01-27T13:44:04;13.90;57.80
19110;DHT22;9687;50.836;12.060;2024-01-27T13:46:35;13.90;58.00
19110;DHT22;9687;50.836;12.060;2024-01-27T13:49:14;13.80;57.90
19110;DHT22;9687;50.836;12.060;2024-01-27T13:51:42;13.70;57.80
19110;DHT22;9687;50.836;12.060;2024-01-27T13:54:09;13.70;57.80
19110;DHT22;9687;50.836;12.060;2024-01-27T13:57:04;13.60;57.80
19110;DHT22;9687;50.836;12.060;2024-01-27T13:59:34;13.50;57.90
19110;DHT22;9687;50.836;12.060;2024-01-27T14:02:01;13.40;57.80
19110;DHT22;9687;50.836;12.060;2024-01-27T14:04:30;13.30;57.90
19110;DHT22;9687;50.836;12.060;2024-01-27T14:06:58;13.30;58.00
19110;DHT22;9687;50.836;12.060;2024-01-27T14:09:39;13.30;58.10
19110;DHT22;9687;50.836;12.060;2024-01-27T14:12:09;13.20;58.30
19110;DHT22;9687;50.836;12.060;2024-01-27T14:14:39;13.10;58.20
19110;DHT22;9687;50.836;12.060;2024-01-27T14:17:09;13.10;58.30
19110;DHT22;9687;50.836;12.060;2024-01-27T14:19:37;13.00;58.40
19110;DHT22;9687;50.836;12.060;2024-01-27T14:22:05;12.90;58.50
19110;DHT22;9687;50.836;12.060;2024-01-27T14:24:34;12.80;58.70
19110;DHT22;9687;50.836;12.060;2024-01-27T14:27:02;12.80;58.70
19110;DHT22;9687;50.836;12.060;2024-01-27T14:29:38;12.80;58.80
19110;DHT22;9687;50.836;12.060;2024-01-27T14:32:09;12.70;58.90
19110;DHT22;9687;50.836;12.060;2024-01-27T14:34:36;12.70;59.00
19110;DHT22;9687;50.836;12.060;2024-01-27T14:37:08;12.70;59.10
19110;DHT22;9687;50.836;12.060;2024-01-27T14:39:53;12.60;59.00
19110;DHT22;9687;50.836;12.060;2024-01-27T14:42:29;12.60;59.20
19110;DHT22;9687;50.836;12.060;2024-01-27T14:44:59;12.60;59.30
19110;DHT22;9687;50.836;12.060;2024-01-27T14:47:36;12.50;59.30
19110;DHT22;9687;50.836;12.060;2024-01-27T14:50:06;12.50;59.30
19110;DHT22;9687;50.836;12.060;2024-01-27T14:52:34;12.50;59.40
19110;DHT22;9687;50.836;12.060;2024-01-27T14:55:07;12.50;59.50
19110;DHT22;9687;50.836;12.060;2024-01-27T14:57:38;12.40;59.50
19110;DHT22;9687;50.836;12.060;2024-01-27T15:00:23;12.40;59.60
19110;DHT22;9687;50.836;12.060;2024-01-27T15:02:57;12.30;59.50
19110;DHT22;9687;50.836;12.060;2024-01-27T15:05:33;12.30;59.60
19110;DHT22;9687;50.836;12.060;2024-01-27T15:08:03;12.20;59.70
19110;DHT22;9687;50.836;12.060;2024-01-27T15:10:45;12.20;59.80
19110;DHT22;9687;50.836;12.060;2024-01-27T15:13:34;12.20;59.90
19110;DHT22;9687;50.836;12.060;2024-01-27T15:16:03;12.10;60.00
19110;DHT22;9687;50.836;12.060;2024-01-27T15:18:30;12.10;60.20
19110;DHT22;9687;50.836;12.060;2024-01-27T15:21:14;12.00;60.30
19110;DHT22;9687;50.836;12.060;2024-01-27T15:23:57;12.00;60.40
19110;DHT22;9687;50.836;12.060;2024-01-27T15:26:35;11.90;60.30
19110;DHT22;9687;50.836;12.060;2024-01-27T15:29:04;11.90;60.30
19110;DHT22;9687;50.836;12.060;2024-01-27T15:31:34;11.80;60.10
19110;DHT22;9687;50.836;12.060;2024-01-27T15:34:16;11.70;60.00
19110;DHT22;9687;50.836;12.060;2024-01-27T15:36:43;11.70;60.20
19110;DHT22;9687;50.836;12.060;2024-01-27T15:39:18;11.60;60.30
19110;DHT22;9687;50.836;12.060;2024-01-27T15:41:48;11.60;60.50
19110;DHT22;9687;50.836;12.060;2024-01-27T15:44:15;11.60;60.60
19110;DHT22;9687;50.836;12.060;2024-01-27T15:46:48;11.50;60.60
19110;DHT22;9687;50.836;12.060;2024-01-27T15:49:18;11.50;60.80
19110;DHT22;9687;50.836;12.060;2024-01-27T15:51:47;11.40;60.70
19110;DHT22;9687;50.836;12.060;2024-01-27T15:54:26;11.40;60.80
19110;DHT22;9687;50.836;12.060;2024-01-27T15:56:54;11.30;60.90
19110;DHT22;9687;50.836;12.060;2024-01-27T15:59:22;11.20;60.80
19110;DHT22;9687;50.836;12.060;2024-01-27T16:01:50;11.20;60.80
19110;DHT22;9687;50.836;12.060;2024-01-27T16:04:37;11.20;60.90
19110;DHT22;9687;50.836;12.060;2024-01-27T16:07:23;11.10;60.80
19110;DHT22;9687;50.836;12.060;2024-01-27T16:10:09;11.10;60.90
19110;DHT22;9687;50.836;12.060;2024-01-27T16:12:38;11.00;60.90
19110;DHT22;9687;50.836;12.060;2024-01-27T16:15:06;11.00;61.00
19110;DHT22;9687;50.836;12.060;2024-01-27T16:17:35;10.90;61.10
19110;DHT22;9687;50.836;12.060;2024-01-27T16:20:16;10.90;61.20
19110;DHT22;9687;50.836;12.060;2024-01-27T16:22:58;10.70;61.20